Flight Track Log - Related Links

Times and Time Zones

All times are in EDT time to prevent confusion due to time zone crossing. See the EGF2754 flight status page for this flight to view local times or setup timezone preferences in your user account.


Time Position Orientation Groundspeed Altitude Reporting Facility
EDT Latitude Longitude Course Direction KTS MPH feet Rate Location/Type
Thu 08:58:15 AM 30.2178 -92.0080 283° West  Level FlightAware Approximate
Thu 08:59:15 AM 30.3081 -92.0291 221° Southwest  Level FlightAware Approximate
Thu 09:00:29 AM 30.2369 -92.1011 343° North 221 254 5,100  Level Houston Center
Thu 09:01:30 AM 30.3039 -92.1253 342° North 234 269 7,200 2,380 Climbing Houston Center
Thu 09:02:30 AM 30.3767 -92.1522 339° North 253 291 9,900 2,200 Climbing Houston Center
Thu 09:03:30 AM 30.4475 -92.1839 342° North 266 306 11,600 1,600 Climbing Houston Center
Thu 09:04:30 AM 30.5308 -92.2156 341° North 288 331 13,100 1,500 Climbing Houston Center
Thu 09:05:30 AM 30.6186 -92.2497 342° North 307 353 14,600 1,450 Climbing Houston Center
Thu 09:06:30 AM 30.7081 -92.2842 342° North 329 379 16,000 1,450 Climbing Houston Center
Thu 09:07:30 AM 30.7978 -92.3186 341° North 334 384 17,500 1,400 Climbing Houston Center
Thu 09:08:30 AM 30.8892 -92.3556 341° North 340 391 18,800 1,400 Climbing Houston Center
Thu 09:09:30 AM 30.9767 -92.3900 341° North 340 391 20,300 1,513 Climbing Houston Center
Thu 09:10:29 AM 31.0683 -92.4269 341° North 340 391 21,800 1,300 Climbing Houston Center
Thu 09:11:30 AM 31.1411 -92.4567 339° North 340 391 22,900 1,289 Climbing Houston Center
Thu 09:12:30 AM 31.2472 -92.5036 301° West 354 407 24,400 1,500 Climbing Houston Center
Thu 09:13:30 AM 31.2967 -92.6011 293° West 347 399 25,900 1,096 Climbing Houston Center
Thu 09:15:47 AM 31.3922 -92.8603 294° West 363 418 28,000 640 Climbing Fort Worth Center
Thu 09:16:47 AM 31.4361 -92.9775 294° West 380 437 28,000  Level Fort Worth Center
Thu 09:17:47 AM 31.4775 -93.0875 294° West 380 437 28,000  Level Fort Worth Center
Thu 09:18:47 AM 31.5208 -93.2000 294° West 380 437 28,000  Level Fort Worth Center
Thu 09:19:47 AM 31.5642 -93.3125 292° West 380 437 28,000  Level Fort Worth Center
Thu 09:20:47 AM 31.6056 -93.4303 293° West 385 443 28,000  Level Fort Worth Center
Thu 09:21:47 AM 31.6489 -93.5481 288° West 390 449 28,000  Level Fort Worth Center
Thu 09:22:47 AM 31.6817 -93.6686 282° West 390 449 28,000  Level Fort Worth Center
Thu 09:23:47 AM 31.7042 -93.7922 283° West 385 443 28,000  Level Fort Worth Center
Thu 09:24:47 AM 31.7286 -93.9158 285° West 385 443 28,000  Level Fort Worth Center
Thu 09:25:47 AM 31.7547 -94.0344 285° West 390 449 28,000  Level Fort Worth Center
Thu 09:26:47 AM 31.7783 -94.1389 284° West 384 442 28,000  Level Fort Worth Center
Thu 09:27:47 AM 31.8044 -94.2625 284° West 384 442 28,000  Level Fort Worth Center
Thu 09:28:47 AM 31.8283 -94.3789 284° West 384 442 28,000  Level Fort Worth Center
Thu 09:29:47 AM 31.8542 -94.5006 283° West 384 442 28,000  Level Fort Worth Center
Thu 09:30:47 AM 31.8778 -94.6219 283° West 384 442 28,000  Level Fort Worth Center
Thu 09:31:47 AM 31.9011 -94.7461 284° West 389 448 28,000  Level Fort Worth Center
Thu 09:32:47 AM 31.9289 -94.8750 282° West 394 453 28,000  Level Fort Worth Center
Thu 09:33:47 AM 31.9525 -95.0067 283° West 405 466 28,000  Level Fort Worth Center
Thu 09:34:47 AM 31.9822 -95.1553 283° West 416 479 28,000  Level Fort Worth Center
Thu 09:35:47 AM 32.0075 -95.2869 283° West 421 484 28,000  Level Fort Worth Center
Thu 09:36:47 AM 32.0328 -95.4186 282° West 421 484 28,000  Level Fort Worth Center
Thu 09:37:47 AM 32.0578 -95.5528 294° West 421 484 28,000  Level Fort Worth Center
Thu 09:38:47 AM 32.0989 -95.6600 293° West 411 473 28,000  Level Fort Worth Center
Thu 09:39:47 AM 32.1467 -95.7939 293° West 406 467 28,000 -50 Level Fort Worth Center
Thu 09:40:47 AM 32.1919 -95.9183 293° West 401 461 27,900 -1,050 Descending Fort Worth Center
Thu 09:41:47 AM 32.2328 -96.0306 293° West 390 449 25,900 -2,400 Descending Fort Worth Center
Thu 09:42:47 AM 32.2739 -96.1456 299° West 380 437 23,100 -2,875 Descending Fort Worth Center
Thu 09:43:23 AM 32.3008 -96.2042 292° West 383 441 21,300 -2,842 Descending FAA TRACON SMA TRACON (SMA)
Thu 09:44:03 AM 32.3250 -96.2733 291° West 371 427 19,500 -2,700 Descending FAA TRACON SMA TRACON (SMA)
Thu 09:44:43 AM 32.3503 -96.3497 294° West 358 412 17,700 -2,475 Descending FAA TRACON SMA TRACON (SMA)
Thu 09:45:23 AM 32.3772 -96.4228 307° West 358 412 16,200 -2,296 Descending FAA TRACON SMA TRACON (SMA)
Thu 09:46:04 AM 32.4183 -96.4875 314° West 361 415 14,600 -2,325 Descending FAA TRACON SMA TRACON (SMA)
Thu 09:46:43 AM 32.4611 -96.5392 314° West 356 410 13,100 -2,278 Descending FAA TRACON SMA TRACON (SMA)
Thu 09:47:23 AM 32.5075 -96.5967 316° Northwest 347 399 11,600 -1,630 Descending FAA TRACON SMA TRACON (SMA)
Thu 09:48:04 AM 32.5542 -96.6503 315° West 337 388 10,900 -525 Descending FAA TRACON SMA TRACON (SMA)
Thu 09:48:43 AM 32.5953 -96.6986 314° West 337 388 10,900  Level FAA TRACON SMA TRACON (SMA)
Thu 09:49:23 AM 32.6400 -96.7539 315° West 335 386 10,900  Level FAA TRACON SMA TRACON (SMA)
Thu 09:50:03 AM 32.6794 -96.8000 315° West 323 372 10,900  Level FAA TRACON SMA TRACON (SMA)
Thu 09:50:43 AM 32.7169 -96.8450 314° West 269 310 10,900  Level FAA TRACON SMA TRACON (SMA)
Thu 09:51:23 AM 32.7506 -96.8869 310° West 251 289 10,900  Level FAA TRACON SMA TRACON (SMA)
Thu 09:52:04 AM 32.7811 -96.9303 307° West 251 289 10,900 -600 Level FAA TRACON SMA TRACON (SMA)
Thu 09:52:43 AM 32.8067 -96.9711 307° West 249 287 10,100 -1,291 Descending FAA TRACON SMA TRACON (SMA)
Thu 09:53:23 AM 32.8367 -97.0183 312° West 247 284 9,200 -975 Descending FAA TRACON SMA TRACON (SMA)
Thu 09:54:03 AM 32.8656 -97.0564 318° Northwest 252 290 8,800 -1,050 Descending FAA TRACON SMA TRACON (SMA)
Thu 09:54:43 AM 32.9053 -97.0986 324° Northwest 280 322 7,800 -1,575 Descending FAA TRACON SMA TRACON (SMA)
Thu 09:55:23 AM 32.9397 -97.1281 347° North 234 269 6,700 -1,481 Descending FAA TRACON SMA TRACON (SMA)
Thu 09:56:04 AM 32.9836 -97.1406 North 235 270 5,800 -1,200 Descending FAA TRACON SMA TRACON (SMA)
Thu 09:56:43 AM 33.0297 -97.1369 60° Northeast 242 278 5,100 -1,367 Descending FAA TRACON SMA TRACON (SMA)
Thu 09:57:23 AM 33.0492 -97.0964 118° Southeast 250 288 4,000 -1,500 Descending FAA TRACON SMA TRACON (SMA)
Thu 09:58:03 AM 33.0303 -97.0544 118° Southeast 228 262 3,100 -1,350 Descending FAA TRACON SMA TRACON (SMA)

Login

Don't have an account? Register now (free) for customized features, flight alerts, and more!